createdAt,value
2022-09-12T00:00:34.038Z,11.30
2022-09-12T00:01:34.082Z,11.60
2022-09-12T00:02:33.978Z,11.00
2022-09-12T00:03:33.988Z,11.30
2022-09-12T00:04:33.990Z,12.20
2022-09-12T00:05:33.998Z,11.60
2022-09-12T00:06:33.938Z,12.30
2022-09-12T00:07:33.918Z,10.90
2022-09-12T00:08:33.975Z,11.50
2022-09-12T00:09:33.940Z,11.60
2022-09-12T00:10:33.898Z,11.70
2022-09-12T00:11:33.975Z,13.00
2022-09-12T00:12:33.838Z,12.70
2022-09-12T00:13:35.563Z,11.60
2022-09-12T00:14:33.918Z,13.30
2022-09-12T00:15:33.838Z,14.00
2022-09-12T00:16:33.891Z,13.40
2022-09-12T00:17:33.799Z,13.70
2022-09-12T00:18:33.777Z,13.00
2022-09-12T00:19:33.765Z,13.10
2022-09-12T00:20:33.767Z,13.40
2022-09-12T00:21:33.768Z,15.20
2022-09-12T00:22:33.717Z,12.10
2022-09-12T00:23:33.705Z,10.20
2022-09-12T00:24:33.731Z,9.00
2022-09-12T00:25:34.618Z,9.30
2022-09-12T00:26:33.685Z,8.80
2022-09-12T00:27:33.695Z,10.00
2022-09-12T00:28:33.637Z,9.50
2022-09-12T00:29:33.618Z,9.50
2022-09-12T00:30:33.615Z,9.40
2022-09-12T00:31:33.649Z,9.30
2022-09-12T00:32:33.579Z,8.60
2022-09-12T00:33:33.606Z,9.30
2022-09-12T00:34:33.558Z,10.00
2022-09-12T00:35:33.560Z,9.30
2022-09-12T00:36:33.548Z,10.00
2022-09-12T00:37:33.508Z,9.30
2022-09-12T00:38:33.507Z,9.80
2022-09-12T00:39:33.522Z,11.00
2022-09-12T00:40:33.471Z,8.60
2022-09-12T00:41:33.452Z,9.70
2022-09-12T00:42:33.438Z,10.60
2022-09-12T00:43:33.439Z,10.50
2022-09-12T00:44:33.425Z,10.70
2022-09-12T00:45:33.470Z,9.70
2022-09-12T00:46:33.418Z,9.50
2022-09-12T00:47:33.404Z,10.00
2022-09-12T00:48:33.365Z,9.60
2022-09-12T00:49:33.357Z,11.20
2022-09-12T00:50:33.344Z,10.90
2022-09-12T00:51:33.340Z,11.70
2022-09-12T00:52:33.309Z,10.80
2022-09-12T00:53:33.288Z,9.60
2022-09-12T00:54:33.290Z,10.70
2022-09-12T00:55:33.288Z,11.40
2022-09-12T00:56:33.278Z,10.00
2022-09-12T00:57:33.245Z,9.40
2022-09-12T00:58:33.220Z,9.60
2022-09-12T00:59:33.210Z,11.60
2022-09-12T01:00:33.247Z,11.10
2022-09-12T01:01:33.275Z,8.70
2022-09-12T01:02:33.204Z,8.80
2022-09-12T01:03:33.162Z,10.20
2022-09-12T01:04:33.159Z,9.60
2022-09-12T01:05:33.167Z,9.90
2022-09-12T01:06:33.133Z,9.80
2022-09-12T01:07:36.843Z,9.00
2022-09-12T01:08:34.110Z,9.00
2022-09-12T01:09:33.095Z,8.90
2022-09-12T01:10:33.049Z,10.40
2022-09-12T01:11:33.091Z,8.90
2022-09-12T01:12:33.037Z,11.10
2022-09-12T01:13:40.553Z,10.20
2022-09-12T01:14:33.003Z,12.10
2022-09-12T01:15:33.015Z,12.40
2022-09-12T01:16:33.061Z,13.10
2022-09-12T01:17:32.994Z,13.50
2022-09-12T01:18:32.950Z,15.40
2022-09-12T01:19:32.943Z,14.10
2022-09-12T01:20:32.934Z,14.80
2022-09-12T01:21:32.934Z,14.70
2022-09-12T01:22:32.932Z,15.90
2022-09-12T01:23:32.915Z,16.70
2022-09-12T01:24:32.854Z,15.30
2022-09-12T01:25:32.881Z,15.20
2022-09-12T01:26:32.845Z,15.60
2022-09-12T01:27:32.823Z,17.20
2022-09-12T01:28:32.842Z,14.90
2022-09-12T01:29:32.845Z,14.60
2022-09-12T01:30:32.816Z,15.30
2022-09-12T01:31:32.781Z,14.30
2022-09-12T01:32:32.839Z,14.10
2022-09-12T01:33:32.747Z,14.40
2022-09-12T01:34:32.755Z,13.30
2022-09-12T01:35:32.737Z,12.90
2022-09-12T01:36:32.733Z,14.60
2022-09-12T01:37:32.693Z,13.60
2022-09-12T01:38:32.702Z,12.00
2022-09-12T01:39:32.666Z,14.10
2022-09-12T01:40:32.685Z,12.60
2022-09-12T01:41:32.668Z,12.10
2022-09-12T01:42:32.641Z,15.50
2022-09-12T01:43:32.623Z,12.60
2022-09-12T01:44:32.634Z,12.70
2022-09-12T01:45:32.624Z,15.70
2022-09-12T01:46:32.602Z,14.90
2022-09-12T01:47:32.574Z,15.90
2022-09-12T01:48:32.544Z,14.10
2022-09-12T01:49:32.533Z,14.50
2022-09-12T01:50:32.576Z,14.40
2022-09-12T01:51:32.523Z,13.20
2022-09-12T01:52:32.510Z,16.50
2022-09-12T01:53:32.499Z,13.40
2022-09-12T01:54:32.482Z,15.20
2022-09-12T01:55:32.462Z,16.10
2022-09-12T01:56:32.490Z,16.10
2022-09-12T01:57:32.426Z,16.10
2022-09-12T01:58:32.453Z,16.00
2022-09-12T01:59:32.433Z,16.10
2022-09-12T02:00:32.393Z,18.10
2022-09-12T02:01:32.443Z,16.40
2022-09-12T02:02:32.443Z,16.80
2022-09-12T02:03:32.374Z,16.80
2022-09-12T02:04:34.386Z,17.10
2022-09-12T02:05:32.332Z,16.30
2022-09-12T02:06:32.331Z,16.00
2022-09-12T02:07:32.290Z,16.60
2022-09-12T02:08:32.281Z,16.30
2022-09-12T02:09:32.258Z,16.50
2022-09-12T02:10:32.822Z,18.50
2022-09-12T02:11:32.265Z,18.20
2022-09-12T02:12:32.219Z,17.70
2022-09-12T02:13:32.230Z,16.80
2022-09-12T02:14:32.210Z,16.90
2022-09-12T02:15:32.193Z,18.10
2022-09-12T02:16:32.252Z,17.40
2022-09-12T02:17:32.163Z,17.60
2022-09-12T02:18:32.149Z,17.70
2022-09-12T02:19:32.156Z,19.60
2022-09-12T02:20:47.426Z,17.90
2022-09-12T02:21:33.119Z,18.80
2022-09-12T02:22:32.112Z,20.20
2022-09-12T02:23:32.120Z,19.50
2022-09-12T02:24:32.081Z,20.80
2022-09-12T02:25:32.041Z,20.10
2022-09-12T02:26:32.032Z,20.60
2022-09-12T02:27:32.084Z,20.30
2022-09-12T02:28:32.031Z,20.70
2022-09-12T02:29:32.012Z,21.00
2022-09-12T02:30:31.996Z,21.60
2022-09-12T02:31:31.972Z,20.40
2022-09-12T02:32:31.961Z,19.80
2022-09-12T02:33:31.977Z,16.60
2022-09-12T02:34:31.922Z,16.10
2022-09-12T02:35:31.901Z,16.30
2022-09-12T02:36:31.902Z,14.10
2022-09-12T02:37:31.892Z,14.70
2022-09-12T02:38:31.922Z,18.00
2022-09-12T02:39:31.901Z,17.30
2022-09-12T02:40:31.838Z,17.40
2022-09-12T02:41:31.885Z,17.20
2022-09-12T02:42:31.835Z,16.10
2022-09-12T02:43:31.818Z,17.40
2022-09-12T02:44:31.775Z,14.80
2022-09-12T02:45:31.842Z,14.60
2022-09-12T02:46:31.768Z,16.10
2022-09-12T02:47:31.769Z,14.70
2022-09-12T02:48:31.731Z,13.30
2022-09-12T02:49:31.713Z,14.40
2022-09-12T02:50:31.742Z,13.80
2022-09-12T02:51:31.761Z,15.40
2022-09-12T02:52:31.732Z,13.20
2022-09-12T02:53:31.683Z,12.20
2022-09-12T02:54:31.692Z,13.30
2022-09-12T02:55:31.656Z,12.80
2022-09-12T02:56:31.641Z,14.70
2022-09-12T02:57:31.618Z,14.00
2022-09-12T02:58:31.638Z,12.20
2022-09-12T02:59:31.591Z,15.50
2022-09-12T03:00:31.572Z,13.50
2022-09-12T03:01:31.606Z,14.40
2022-09-12T03:02:31.542Z,13.50
2022-09-12T03:03:31.527Z,13.30
2022-09-12T03:04:31.577Z,12.90
2022-09-12T03:05:31.519Z,13.70
2022-09-12T03:06:31.493Z,12.80
2022-09-12T03:07:31.503Z,12.20
2022-09-12T03:08:31.465Z,12.40
2022-09-12T03:09:31.479Z,15.90
2022-09-12T03:10:31.450Z,14.00
2022-09-12T03:11:31.473Z,13.20
2022-09-12T03:12:31.436Z,12.30
2022-09-12T03:13:31.436Z,12.40
2022-09-12T03:14:31.386Z,13.80
2022-09-12T03:15:31.372Z,12.70
2022-09-12T03:16:31.403Z,11.40
2022-09-12T03:17:31.377Z,13.40
2022-09-12T03:18:31.344Z,14.30
2022-09-12T03:19:31.301Z,15.30
2022-09-12T03:20:31.292Z,13.30
2022-09-12T03:21:31.313Z,14.40
2022-09-12T03:22:31.286Z,17.30
2022-09-12T03:23:31.325Z,13.80
2022-09-12T03:24:31.292Z,14.20
2022-09-12T03:25:31.239Z,15.70
2022-09-12T03:26:31.227Z,14.40
2022-09-12T03:27:31.237Z,14.20
2022-09-12T03:28:31.191Z,13.40
2022-09-12T03:29:31.248Z,15.30
2022-09-12T03:30:31.204Z,15.90
2022-09-12T03:31:31.177Z,15.30
2022-09-12T03:32:31.151Z,17.20
2022-09-12T03:33:31.144Z,16.50
2022-09-12T03:34:31.100Z,14.50
2022-09-12T03:35:31.171Z,16.90
2022-09-12T03:36:31.111Z,17.10
2022-09-12T03:37:31.097Z,16.60
2022-09-12T03:38:31.071Z,16.10
2022-09-12T03:39:31.039Z,18.20
2022-09-12T03:40:31.035Z,18.60
2022-09-12T03:41:31.075Z,15.00
2022-09-12T03:42:31.003Z,17.20
2022-09-12T03:43:31.021Z,17.50
2022-09-12T03:44:30.981Z,16.10
2022-09-12T03:45:31.027Z,17.30
2022-09-12T03:46:30.963Z,16.90
2022-09-12T03:47:30.973Z,16.60
2022-09-12T03:48:30.933Z,18.10
2022-09-12T03:49:30.951Z,19.50
2022-09-12T03:50:30.900Z,19.60
2022-09-12T03:51:30.913Z,18.40
2022-09-12T03:52:30.903Z,20.80
2022-09-12T03:53:30.870Z,18.20
2022-09-12T03:54:30.858Z,20.60
2022-09-12T03:55:30.887Z,15.80
2022-09-12T03:56:30.820Z,17.50
2022-09-12T03:57:30.843Z,17.00
2022-09-12T03:58:30.792Z,14.30
2022-09-12T03:59:30.819Z,15.90
2022-09-12T04:00:30.780Z,14.70
2022-09-12T04:01:30.846Z,15.80
2022-09-12T04:02:30.743Z,14.70
2022-09-12T04:03:30.738Z,14.60
2022-09-12T04:04:30.707Z,16.30
2022-09-12T04:05:30.681Z,18.00
2022-09-12T04:06:30.707Z,15.20
2022-09-12T04:07:30.690Z,16.60
2022-09-12T04:08:30.652Z,15.30
2022-09-12T04:09:30.654Z,16.30
2022-09-12T04:10:30.654Z,15.50
2022-09-12T04:11:30.632Z,15.80
2022-09-12T04:12:30.615Z,15.40
2022-09-12T04:13:30.635Z,16.70
2022-09-12T04:14:30.587Z,16.90
2022-09-12T04:15:30.571Z,17.00
2022-09-12T04:16:30.568Z,15.40
2022-09-12T04:17:30.560Z,16.20
2022-09-12T04:18:30.521Z,16.60
2022-09-12T04:19:30.530Z,17.30
2022-09-12T04:20:30.499Z,16.40
2022-09-12T04:21:30.498Z,16.50
2022-09-12T04:22:30.466Z,17.20
2022-09-12T04:23:30.463Z,17.40
2022-09-12T04:24:30.430Z,18.90
2022-09-12T04:25:30.453Z,18.80
2022-09-12T04:26:30.436Z,18.40
2022-09-12T04:27:30.419Z,16.90
2022-09-12T04:28:30.381Z,19.00
2022-09-12T04:29:30.386Z,20.60
2022-09-12T04:30:30.379Z,17.90
2022-09-12T04:31:30.389Z,18.90
2022-09-12T04:32:30.333Z,20.30
2022-09-12T04:33:30.320Z,20.80
2022-09-12T04:34:30.311Z,18.90
2022-09-12T04:35:30.299Z,18.70
2022-09-12T04:36:30.272Z,16.60
2022-09-12T04:37:30.323Z,15.60
2022-09-12T04:38:30.326Z,18.10
2022-09-12T04:39:30.239Z,23.20
2022-09-12T04:40:30.209Z,21.70
2022-09-12T04:41:30.210Z,18.20
2022-09-12T04:42:30.215Z,16.00
2022-09-12T04:43:30.197Z,15.80
2022-09-12T04:44:30.212Z,14.50
2022-09-12T04:45:30.169Z,13.80
2022-09-12T04:46:30.136Z,16.40
2022-09-12T04:47:30.119Z,14.00
2022-09-12T04:48:30.111Z,14.70
2022-09-12T04:49:30.165Z,16.40
2022-09-12T04:50:30.096Z,17.40
2022-09-12T04:51:30.079Z,15.60
2022-09-12T04:52:30.051Z,17.90
2022-09-12T04:53:30.070Z,17.20
2022-09-12T04:54:30.074Z,19.40
2022-09-12T04:55:30.051Z,15.90
2022-09-12T04:56:30.026Z,16.70
2022-09-12T04:57:30.059Z,17.00
2022-09-12T04:58:30.001Z,20.00
2022-09-12T04:59:29.982Z,19.00
2022-09-12T05:00:30.081Z,16.40
2022-09-12T05:01:30.004Z,21.30
2022-09-12T05:02:29.988Z,21.50
2022-09-12T05:03:29.959Z,21.80
2022-09-12T05:04:29.958Z,23.20
2022-09-12T05:05:29.921Z,21.70
2022-09-12T05:06:29.891Z,22.30
2022-09-12T05:07:29.918Z,23.30
2022-09-12T05:08:29.885Z,25.60
2022-09-12T05:09:29.858Z,21.30
2022-09-12T05:10:29.838Z,23.10
2022-09-12T05:11:46.735Z,23.10
2022-09-12T05:12:30.840Z,21.30
2022-09-12T05:13:29.790Z,22.70
2022-09-12T05:14:29.788Z,20.60
2022-09-12T05:15:29.763Z,25.10
2022-09-12T05:16:29.758Z,24.40
2022-09-12T05:17:29.732Z,21.40
2022-09-12T05:18:29.840Z,18.90
2022-09-12T05:19:29.756Z,16.30
2022-09-12T05:20:29.701Z,19.40
2022-09-12T05:21:29.676Z,16.80
2022-09-12T05:22:29.668Z,17.50
2022-09-12T05:23:29.725Z,16.60
2022-09-12T05:24:29.658Z,17.80
2022-09-12T05:25:29.645Z,17.20
2022-09-12T05:26:29.669Z,18.90
2022-09-12T05:27:29.620Z,19.90
2022-09-12T05:28:29.577Z,20.10
2022-09-12T05:29:29.573Z,18.00
2022-09-12T05:30:29.663Z,16.60
2022-09-12T05:31:29.551Z,16.60
2022-09-12T05:32:29.576Z,17.80
2022-09-12T05:33:29.684Z,17.40
2022-09-12T05:34:29.517Z,16.50
2022-09-12T05:35:29.511Z,16.90
2022-09-12T05:36:29.493Z,17.60
2022-09-12T05:37:29.489Z,18.70
2022-09-12T05:38:29.475Z,16.20
2022-09-12T05:39:29.448Z,17.10
2022-09-12T05:40:29.446Z,17.20
2022-09-12T05:41:29.382Z,19.00
2022-09-12T05:42:29.455Z,18.60
2022-09-12T05:43:29.372Z,18.40
2022-09-12T05:44:29.433Z,23.10
2022-09-12T05:45:29.332Z,20.20
2022-09-12T05:46:29.351Z,20.30
2022-09-12T05:47:29.309Z,17.70
2022-09-12T05:48:29.300Z,16.90
2022-09-12T05:49:29.287Z,16.20
2022-09-12T05:50:29.398Z,18.20
2022-09-12T05:51:29.320Z,16.30
2022-09-12T05:52:29.353Z,17.10
2022-09-12T05:53:29.405Z,18.20
2022-09-12T05:54:31.721Z,18.00
2022-09-12T05:55:29.238Z,16.70
2022-09-12T05:56:29.288Z,15.80
2022-09-12T05:57:29.210Z,15.10
2022-09-12T05:58:29.252Z,14.70
2022-09-12T05:59:29.171Z,16.10
2022-09-12T06:00:33.424Z,14.30
2022-09-12T06:01:29.223Z,12.30
2022-09-12T06:02:29.270Z,13.10
2022-09-12T06:03:29.166Z,17.40
2022-09-12T06:04:29.218Z,13.40
2022-09-12T06:05:29.079Z,14.50
2022-09-12T06:06:29.188Z,14.60
2022-09-12T06:07:29.028Z,12.00
2022-09-12T06:08:29.031Z,12.10
2022-09-12T06:09:29.058Z,12.70
2022-09-12T06:10:29.066Z,13.70
2022-09-12T06:11:29.051Z,12.20
2022-09-12T06:12:29.079Z,12.20
2022-09-12T06:13:28.980Z,15.70
2022-09-12T06:14:28.989Z,14.20
2022-09-12T06:15:28.977Z,16.70
2022-09-12T06:16:29.054Z,13.50
2022-09-12T06:17:28.938Z,13.10
2022-09-12T06:18:28.941Z,14.50
2022-09-12T06:19:28.902Z,15.00
2022-09-12T06:20:28.916Z,13.20
2022-09-12T06:21:28.907Z,13.20
2022-09-12T06:22:28.819Z,13.40
2022-09-12T06:23:28.845Z,13.90
2022-09-12T06:24:28.895Z,14.80
2022-09-12T06:25:28.808Z,14.70
2022-09-12T06:26:28.824Z,16.00
2022-09-12T06:27:28.779Z,15.70
2022-09-12T06:28:28.769Z,15.10
2022-09-12T06:29:28.806Z,14.70
2022-09-12T06:30:28.858Z,14.70
2022-09-12T06:31:28.729Z,15.80
2022-09-12T06:32:28.807Z,15.70
2022-09-12T06:33:28.809Z,17.00
2022-09-12T06:34:28.737Z,15.00
2022-09-12T06:35:28.650Z,15.70
2022-09-12T06:36:28.672Z,14.70
2022-09-12T06:37:28.665Z,15.20
2022-09-12T06:38:28.624Z,17.90
2022-09-12T06:39:28.619Z,15.00
2022-09-12T06:40:28.606Z,15.40
2022-09-12T06:41:28.618Z,14.30
2022-09-12T06:42:28.668Z,13.80
2022-09-12T06:43:28.663Z,16.60
2022-09-12T06:44:28.585Z,15.40
2022-09-12T06:45:28.511Z,15.60
2022-09-12T06:46:28.570Z,16.40
2022-09-12T06:47:28.547Z,14.80
2022-09-12T06:48:28.497Z,15.10
2022-09-12T06:49:28.537Z,14.50
2022-09-12T06:50:28.487Z,17.40
2022-09-12T06:51:28.497Z,15.70
2022-09-12T06:52:28.461Z,15.40
2022-09-12T06:53:28.416Z,17.10
2022-09-12T06:54:28.627Z,15.80
2022-09-12T06:55:28.395Z,17.10
2022-09-12T06:56:28.431Z,16.40
2022-09-12T06:57:28.378Z,17.30
2022-09-12T06:58:28.443Z,19.60
2022-09-12T06:59:28.335Z,15.90
2022-09-12T07:00:28.371Z,15.20
2022-09-12T07:01:28.408Z,20.80
2022-09-12T07:02:28.430Z,19.80
2022-09-12T07:03:28.290Z,22.70
2022-09-12T07:04:28.393Z,19.60
2022-09-12T07:05:28.240Z,17.20
2022-09-12T07:06:28.232Z,22.40
2022-09-12T07:07:28.302Z,17.40
2022-09-12T07:08:28.310Z,16.10
2022-09-12T07:09:28.219Z,16.50
2022-09-12T07:10:28.412Z,18.50
2022-09-12T07:11:28.200Z,18.20
2022-09-12T07:12:28.187Z,16.40
2022-09-12T07:13:28.210Z,21.60
2022-09-12T07:14:28.217Z,20.20
2022-09-12T07:15:28.149Z,15.00
2022-09-12T07:16:28.191Z,17.30
2022-09-12T07:17:28.120Z,22.90
2022-09-12T07:18:28.145Z,16.70
2022-09-12T07:19:28.155Z,17.70
2022-09-12T07:20:28.070Z,18.30
2022-09-12T07:21:28.047Z,15.10
2022-09-12T07:22:28.103Z,16.00
2022-09-12T07:23:28.079Z,17.40
2022-09-12T07:24:28.069Z,22.30
2022-09-12T07:25:28.059Z,16.70
2022-09-12T07:26:28.025Z,14.90
2022-09-12T07:27:28.000Z,18.80
2022-09-12T07:28:27.971Z,17.10
2022-09-12T07:29:43.384Z,16.40
2022-09-12T07:30:29.438Z,17.10
2022-09-12T07:31:27.911Z,18.30
2022-09-12T07:32:27.925Z,16.10
2022-09-12T07:33:27.944Z,14.60
2022-09-12T07:34:28.607Z,17.20
2022-09-12T07:35:27.881Z,17.50
2022-09-12T07:36:27.890Z,14.80
2022-09-12T07:37:27.905Z,16.10
2022-09-12T07:38:27.810Z,15.40
2022-09-12T07:39:27.986Z,19.80
2022-09-12T07:40:27.781Z,17.40
2022-09-12T07:41:27.788Z,15.20
2022-09-12T07:42:27.895Z,19.20
2022-09-12T07:43:27.755Z,15.90
2022-09-12T07:44:27.739Z,17.00
2022-09-12T07:45:27.712Z,18.80
2022-09-12T07:46:27.751Z,16.90
2022-09-12T07:47:27.722Z,18.90
2022-09-12T07:48:28.565Z,16.80
2022-09-12T07:49:27.660Z,16.20
2022-09-12T07:50:27.701Z,15.30
2022-09-12T07:51:27.619Z,17.20
2022-09-12T07:52:27.649Z,16.30
2022-09-12T07:53:27.737Z,16.40
2022-09-12T07:54:27.638Z,14.80
2022-09-12T07:55:27.577Z,18.20
2022-09-12T07:56:31.198Z,17.20
2022-09-12T07:57:28.553Z,18.60
2022-09-12T07:58:27.523Z,16.30
2022-09-12T07:59:50.951Z,18.00
2022-09-12T08:00:28.531Z,18.10
2022-09-12T08:01:27.552Z,14.20
2022-09-12T08:02:27.561Z,15.40
2022-09-12T08:03:27.472Z,15.80
2022-09-12T08:04:27.450Z,17.40
2022-09-12T08:05:27.431Z,15.70
2022-09-12T08:06:27.677Z,14.00
2022-09-12T08:07:27.381Z,16.10
2022-09-12T08:08:27.391Z,15.40
2022-09-12T08:09:27.362Z,13.80
2022-09-12T08:10:27.639Z,14.80
2022-09-12T08:11:27.343Z,15.00
2022-09-12T08:12:27.394Z,14.80
2022-09-12T08:13:27.369Z,15.70
2022-09-12T08:14:27.343Z,19.60
2022-09-12T08:15:27.451Z,14.60
2022-09-12T08:16:27.326Z,14.20
2022-09-12T08:17:27.462Z,15.50
2022-09-12T08:18:27.261Z,16.40
2022-09-12T08:19:27.260Z,15.30
2022-09-12T08:20:28.494Z,16.40
2022-09-12T08:21:27.204Z,16.60
2022-09-12T08:22:27.204Z,15.40
2022-09-12T08:23:27.163Z,14.20
2022-09-12T08:24:35.857Z,14.90
2022-09-12T08:25:27.132Z,20.20
2022-09-12T08:26:27.139Z,13.80
2022-09-12T08:27:27.134Z,18.40
2022-09-12T08:29:37.177Z,18.80
2022-09-12T08:30:37.007Z,17.30
2022-09-12T08:31:36.962Z,15.20
2022-09-12T08:32:36.967Z,16.10
2022-09-12T08:33:36.977Z,14.00
2022-09-12T08:34:36.961Z,13.90
2022-09-12T08:35:36.978Z,12.90
2022-09-12T08:36:37.062Z,12.70
2022-09-12T08:37:36.888Z,12.70
2022-09-12T08:38:36.872Z,13.00
2022-09-12T08:39:43.775Z,14.80
2022-09-12T08:40:36.831Z,12.10
2022-09-12T08:41:36.858Z,15.70
2022-09-12T08:42:36.817Z,12.30
2022-09-12T08:43:36.822Z,14.50
2022-09-12T08:44:46.691Z,16.60
2022-09-12T08:45:37.797Z,13.20
2022-09-12T08:46:37.459Z,14.60
2022-09-12T08:47:36.771Z,16.60
2022-09-12T08:48:36.750Z,13.00
2022-09-12T08:49:36.760Z,13.30
2022-09-12T08:50:52.683Z,14.20
2022-09-12T08:51:37.700Z,15.30
2022-09-12T08:52:36.665Z,12.80
2022-09-12T08:53:36.662Z,14.60
2022-09-12T08:54:36.787Z,15.10
2022-09-12T08:55:36.764Z,18.10
2022-09-12T08:56:36.620Z,13.50
2022-09-12T08:57:36.612Z,13.90
2022-09-12T08:58:36.583Z,12.10
2022-09-12T08:59:36.625Z,12.30
2022-09-12T09:00:36.600Z,12.00
2022-09-12T09:01:36.617Z,12.90
2022-09-12T09:02:36.591Z,13.40
2022-09-12T09:03:36.535Z,16.10
2022-09-12T09:04:36.529Z,15.90
2022-09-12T09:06:46.495Z,12.90
2022-09-12T09:07:46.330Z,12.60
2022-09-12T09:08:46.372Z,12.90
2022-09-12T09:09:46.320Z,12.00
2022-09-12T09:10:46.423Z,13.40
2022-09-12T09:11:46.287Z,11.90
2022-09-12T09:12:46.341Z,13.70
2022-09-12T09:13:46.459Z,14.50
2022-09-12T09:14:46.283Z,14.00
2022-09-12T09:15:46.320Z,16.20
2022-09-12T09:16:46.285Z,14.10
2022-09-12T09:17:46.228Z,15.30
2022-09-12T09:18:46.206Z,13.20
2022-09-12T09:19:50.502Z,13.30
2022-09-12T09:20:46.220Z,13.20
2022-09-12T09:21:46.192Z,15.00
2022-09-12T09:22:46.150Z,16.30
2022-09-12T09:23:46.369Z,12.90
2022-09-12T09:24:46.160Z,12.60
2022-09-12T09:25:46.111Z,12.70
2022-09-12T09:26:46.170Z,14.00
2022-09-12T09:27:46.081Z,12.90
2022-09-12T09:28:46.051Z,14.60
2022-09-12T09:29:46.043Z,14.80
2022-09-12T09:30:46.265Z,12.00
2022-09-12T09:31:46.032Z,12.00
2022-09-12T09:32:46.147Z,12.20
2022-09-12T09:33:46.132Z,10.40
2022-09-12T09:34:45.993Z,9.00
2022-09-12T09:35:45.989Z,12.80
2022-09-12T09:36:46.161Z,11.30
2022-09-12T09:37:45.982Z,9.80
2022-09-12T09:38:46.172Z,9.90
2022-09-12T09:39:46.065Z,10.30
2022-09-12T09:40:46.001Z,14.60
2022-09-12T09:41:45.915Z,16.30
2022-09-12T09:42:45.914Z,15.50
2022-09-12T09:43:45.873Z,16.40
2022-09-12T09:44:45.893Z,14.20
2022-09-12T09:45:47.862Z,12.40
2022-09-12T09:46:45.851Z,15.10
2022-09-12T09:47:45.909Z,13.50
2022-09-12T09:48:45.898Z,14.50
2022-09-12T09:49:45.784Z,14.30
2022-09-12T09:50:45.832Z,12.00
2022-09-12T09:51:45.823Z,11.50
2022-09-12T09:52:45.853Z,13.40
2022-09-12T09:53:45.737Z,14.20
2022-09-12T09:54:45.775Z,14.10
2022-09-12T09:55:45.758Z,13.60
2022-09-12T09:56:45.723Z,12.10
2022-09-12T09:57:45.724Z,11.40
2022-09-12T09:58:46.510Z,11.20
2022-09-12T09:59:45.655Z,12.20
2022-09-12T10:00:45.658Z,10.60
2022-09-12T10:01:45.657Z,11.70
2022-09-12T10:02:45.655Z,8.80
2022-09-12T10:03:45.670Z,10.30
2022-09-12T10:04:45.637Z,10.60
2022-09-12T10:05:45.635Z,14.20
2022-09-12T10:06:45.610Z,11.10
2022-09-12T10:07:45.574Z,10.40
2022-09-12T10:08:45.617Z,7.40
2022-09-12T10:09:45.555Z,7.00
2022-09-12T10:10:45.489Z,8.70
2022-09-12T10:11:46.125Z,9.40
2022-09-12T10:12:45.460Z,9.80
2022-09-12T10:13:45.455Z,8.10
2022-09-12T10:14:45.763Z,10.40
2022-09-12T10:15:45.486Z,8.10
2022-09-12T10:16:45.412Z,7.40
2022-09-12T10:17:45.529Z,9.10
2022-09-12T10:18:45.411Z,5.80
2022-09-12T10:19:49.844Z,6.90
2022-09-12T10:20:46.447Z,6.90
2022-09-12T10:21:45.446Z,7.20
2022-09-12T10:22:45.362Z,6.60
2022-09-12T10:23:45.500Z,8.10
2022-09-12T10:24:45.358Z,6.20
2022-09-12T10:25:45.364Z,7.60
2022-09-12T10:26:45.363Z,5.90
2022-09-12T10:27:45.336Z,7.20
2022-09-12T10:28:45.417Z,6.60
2022-09-12T10:29:45.304Z,6.70
2022-09-12T10:30:45.285Z,6.40
2022-09-12T10:31:45.218Z,5.90
2022-09-12T10:32:45.249Z,6.40
2022-09-12T10:33:45.279Z,5.60
2022-09-12T10:34:45.219Z,7.10
2022-09-12T10:35:45.314Z,6.40
2022-09-12T10:36:45.180Z,6.70
2022-09-12T10:37:48.332Z,8.00
2022-09-12T10:38:46.154Z,5.40
2022-09-12T10:39:45.175Z,5.00
2022-09-12T10:40:45.109Z,5.10
2022-09-12T10:41:45.158Z,6.40
2022-09-12T10:42:45.100Z,5.30
2022-09-12T10:43:45.149Z,5.80
2022-09-12T10:44:45.018Z,4.30
2022-09-12T10:45:45.088Z,6.80
2022-09-12T10:46:45.017Z,7.60
2022-09-12T10:47:45.179Z,6.20
2022-09-12T10:48:44.988Z,6.90
2022-09-12T10:49:44.974Z,15.20
2022-09-12T10:50:45.046Z,6.00
2022-09-12T10:51:44.945Z,5.70
2022-09-12T10:52:44.971Z,4.70
2022-09-12T10:53:45.118Z,5.80
2022-09-12T10:54:44.938Z,6.20
2022-09-12T10:55:44.927Z,5.10
2022-09-12T10:56:44.896Z,6.10
2022-09-12T10:57:45.009Z,5.90
2022-09-12T10:58:44.870Z,5.50
2022-09-12T10:59:44.855Z,5.00
2022-09-12T11:00:44.896Z,4.80
2022-09-12T11:01:44.879Z,6.50
2022-09-12T11:02:44.923Z,5.00
2022-09-12T11:03:44.777Z,5.10
2022-09-12T11:04:44.814Z,6.00
2022-09-12T11:05:44.878Z,5.60
2022-09-12T11:06:44.884Z,6.30
2022-09-12T11:07:44.880Z,6.60
2022-09-12T11:08:44.733Z,4.80
2022-09-12T11:09:44.741Z,5.40
2022-09-12T11:10:44.685Z,4.90
2022-09-12T11:11:44.778Z,5.10
2022-09-12T11:12:44.713Z,5.20
2022-09-12T11:13:44.742Z,5.20
2022-09-12T11:14:44.644Z,9.60
2022-09-12T11:15:44.694Z,5.30
2022-09-12T11:16:44.662Z,6.30
2022-09-12T11:17:44.639Z,5.50
2022-09-12T11:18:44.682Z,5.30
2022-09-12T11:19:44.646Z,5.40
2022-09-12T11:20:44.584Z,4.70
2022-09-12T11:21:44.731Z,5.10
2022-09-12T11:22:44.554Z,14.10
2022-09-12T11:23:44.593Z,4.90
2022-09-12T11:24:44.502Z,5.70
2022-09-12T11:25:44.526Z,5.50
2022-09-12T11:26:44.502Z,5.30
2022-09-12T11:27:44.571Z,4.20
2022-09-12T11:28:47.260Z,7.80
2022-09-12T11:29:44.523Z,5.20
2022-09-12T11:30:44.446Z,4.20
2022-09-12T11:31:44.418Z,5.30
2022-09-12T11:32:44.577Z,5.30
2022-09-12T11:33:44.592Z,4.40
2022-09-12T11:34:44.356Z,5.80
2022-09-12T11:35:44.677Z,7.20
2022-09-12T11:36:44.369Z,5.20
2022-09-12T11:37:44.339Z,4.50
2022-09-12T11:38:44.438Z,3.90
2022-09-12T11:39:44.364Z,4.20
2022-09-12T11:40:44.387Z,6.20
2022-09-12T11:41:44.498Z,6.00
2022-09-12T11:42:44.260Z,3.90
2022-09-12T11:43:44.296Z,3.80
2022-09-12T11:44:44.284Z,3.70
2022-09-12T11:45:44.297Z,3.40
2022-09-12T11:46:46.664Z,4.10
2022-09-12T11:47:44.229Z,4.10
2022-09-12T11:48:44.246Z,4.50
2022-09-12T11:49:44.362Z,3.80
2022-09-12T11:50:48.119Z,3.20
2022-09-12T11:51:44.309Z,3.30
2022-09-12T11:52:44.168Z,4.50
2022-09-12T11:53:44.141Z,3.20
2022-09-12T11:54:44.137Z,2.90
2022-09-12T11:55:44.190Z,4.00
2022-09-12T11:56:44.109Z,5.90
2022-09-12T11:57:44.068Z,3.90
2022-09-12T11:58:44.038Z,3.60
2022-09-12T11:59:44.114Z,5.90
2022-09-12T12:00:43.996Z,4.10
2022-09-12T12:01:48.320Z,3.50
2022-09-12T12:02:44.079Z,5.30
2022-09-12T12:03:44.034Z,7.50
2022-09-12T12:04:43.938Z,3.10
2022-09-12T12:05:44.006Z,4.30
2022-09-12T12:06:43.948Z,3.20
2022-09-12T12:07:45.751Z,3.90
2022-09-12T12:08:43.899Z,5.50
2022-09-12T12:09:43.977Z,6.30
2022-09-12T12:10:43.899Z,3.00
2022-09-12T12:11:43.935Z,5.90
2022-09-12T12:12:43.879Z,3.60
2022-09-12T12:13:43.842Z,3.50
2022-09-12T12:14:43.813Z,4.10
2022-09-12T12:15:43.836Z,3.70
2022-09-12T12:16:43.790Z,3.60
2022-09-12T12:17:43.843Z,4.90
2022-09-12T12:18:43.796Z,3.40
2022-09-12T12:19:43.848Z,3.60
2022-09-12T12:20:43.740Z,3.60
2022-09-12T12:21:43.761Z,4.60
2022-09-12T12:22:43.758Z,3.80
2022-09-12T12:23:43.740Z,3.00
2022-09-12T12:24:43.702Z,3.80
2022-09-12T12:25:43.675Z,4.30
2022-09-12T12:26:43.663Z,2.90
2022-09-12T12:27:43.660Z,3.70
2022-09-12T12:28:43.621Z,3.10
2022-09-12T12:29:44.400Z,3.50
2022-09-12T12:30:43.650Z,3.10
2022-09-12T12:31:43.584Z,4.70
2022-09-12T12:32:43.642Z,2.60
2022-09-12T12:33:43.602Z,2.80
2022-09-12T12:34:43.622Z,3.50
2022-09-12T12:35:43.602Z,2.70
2022-09-12T12:36:43.521Z,3.40
2022-09-12T12:37:43.522Z,3.10
2022-09-12T12:38:43.482Z,4.30
2022-09-12T12:39:43.605Z,3.80
2022-09-12T12:40:43.478Z,2.50
2022-09-12T12:41:43.462Z,2.70
2022-09-12T12:42:43.629Z,5.00
2022-09-12T12:43:43.441Z,1.90
2022-09-12T12:44:43.442Z,3.90
2022-09-12T12:45:43.422Z,2.20
2022-09-12T12:46:43.436Z,2.70
2022-09-12T12:47:43.373Z,2.20
2022-09-12T12:48:43.382Z,1.90
2022-09-12T12:49:43.364Z,1.80
2022-09-12T12:50:43.345Z,2.20
2022-09-12T12:51:43.343Z,4.60
2022-09-12T12:52:43.334Z,2.70
2022-09-12T12:53:43.295Z,5.00
2022-09-12T12:54:43.373Z,1.70
2022-09-12T12:55:43.290Z,4.40
2022-09-12T12:56:43.245Z,2.70
2022-09-12T12:57:43.236Z,1.80
2022-09-12T12:58:43.245Z,5.20
2022-09-12T12:59:43.237Z,3.40
2022-09-12T13:00:43.215Z,2.70
2022-09-12T13:01:43.250Z,2.20